Nearby METAR Reports

 

KBED - Bedford, Massachusetts, USA
Distance from station: ENE 12mi, 20km
Updated: Wed, 21-Apr-2021 5:51am EDT
Clear
Clear
 Wind from calm
Wind: Calm
Temperature: 41°F , 5°C
Dew Point: 36°F , 2°C
Humidity: 81%
Barometer: 29.82 inHg , 1009.8 hPa
Clouds: Clear
Visibility: 10 miles , 16 km
2021/04/21 09:51 KBED 210951Z AUTO 00000KT 10SM CLR 05/02 A2982 RMK AO2 SLP109 T00500022
KFIT - Fitchburg, Massachusetts, USA
Distance from station: NW 15mi, 24km
Updated: Wed, 21-Apr-2021 5:52am EDT
Few Clouds
Few Clouds
 Wind from WNW
Wind: WNW 3 mph , 6 km/h
Temperature: 37°F , 3°C
Dew Point: 36°F , 2°C
Humidity: 93%
Barometer: 29.83 inHg , 1010.2 hPa
Clouds: Few Clouds
Visibility: 10 miles , 16 km
Cloud details: Few Clouds 8000 ft
2021/04/21 09:52 KFIT 210952Z AUTO 30003KT 10SM FEW080 03/02 A2983 RMK AO2 SLP104 T00280022
 
KORH - Worcester, Massachusetts, USA
Distance from station: WSW 20mi, 32km
Updated: Wed, 21-Apr-2021 5:54am EDT
Mostly cloudy
Mostly cloudy
 Wind from S
Wind: S 3 mph , 6 km/h
Temperature: 48°F , 9°C
Dew Point: 37°F , 3°C
Humidity: 66%
Barometer: 29.81 inHg , 1009.5 hPa
Clouds: Mostly cloudy
Visibility: 10 miles , 16 km
Cloud details: Mostly cloudy 7500 ft
2021/04/21 09:54 KORH 210954Z AUTO 17003KT 10SM BKN075 09/03 A2981 RMK AO2 SLP094 T00890028
KOWD - Norwood, Massachusetts, USA
Distance from station: SE 24mi, 39km
Updated: Wed, 21-Apr-2021 5:53am EDT
Mostly cloudy
Mostly cloudy
 Wind from calm
Wind: Calm
Temperature: 45°F , 7°C
Dew Point: 39°F , 4°C
Humidity: 81%
Barometer: 29.84 inHg , 1010.5 hPa
Clouds: Mostly cloudy
Visibility: 10 miles , 16 km
Cloud details: Mostly cloudy 8000 ft
2021/04/21 09:53 KOWD 210953Z AUTO 00000KT 10SM BKN080 07/04 A2984 RMK AO2 SLP103 T00670039
 
KMQE - East Milton, Massachusetts, USA
Distance from station: ESE 25mi, 40km
Updated: Wed, 21-Apr-2021 5:51am EDT

 Wind from S
Wind: S 15 mph , 24 km/h
Temperature: 46°F , 8°C
Wind Chill: 40°F , 4°C
Dew Point: 43°F , 6°C
Humidity: 87%
Barometer: 29.82 inHg , 1009.8 hPa
2021/04/21 09:51 KMQE 210951Z AUTO 18013KT 08/06 A2982 RMK AO1 SLP108 T00830061
KASH - Nashua/Boire Fld, New Hampshire, USA
Distance from station: N 26mi, 42km
Updated: Wed, 21-Apr-2021 5:56am EDT
Mostly cloudy
Mostly cloudy
 Wind from WNW
Wind: WNW 5 mph , 7 km/h
Temperature: 37°F , 3°C
Wind Chill: 33°F , 1°C
Dew Point: 37°F , 3°C
Humidity: 100%
Barometer: 29.84 inHg , 1010.5 hPa
Clouds: Mostly cloudy
Visibility: 10 miles , 16 km
Cloud details: Mostly cloudy 7000 ft
2021/04/21 09:56 KASH 210956Z AUTO 30004KT 10SM BKN070 03/03 A2984 RMK AO2 SLP109 T00280028
 
KBOS - Boston, Massachusetts, USA
Distance from station: E 26mi, 42km
Updated: Wed, 21-Apr-2021 5:54am EDT
Few Clouds
Few Clouds
 Wind from S
Wind: S 8 mph , 13 km/h
Temperature: 48°F , 9°C
Wind Chill: 44°F , 7°C
Dew Point: 39°F , 4°C
Humidity: 71%
Barometer: 29.84 inHg , 1010.5 hPa
Clouds: Few Clouds
Visibility: 10 miles , 16 km
Cloud details: Few Clouds 9000 ft
Few Clouds 25000 ft
2021/04/21 09:54 KBOS 210954Z 17007KT 10SM FEW090 FEW250 09/04 A2984 RMK AO2 SLP105 T00890044
KLWM - Lawrence, Massachusetts, USA
Distance from station: NE 29mi, 47km
Updated: Wed, 21-Apr-2021 5:54am EDT
Clear
Clear
 Wind from calm
Wind: Calm
Temperature: 39°F , 4°C
Dew Point: 37°F , 3°C
Humidity: 93%
Barometer: 29.84 inHg , 1010.5 hPa
Clouds: Clear
Visibility: 10 miles , 16 km
2021/04/21 09:54 KLWM 210954Z AUTO 00000KT 10SM CLR 04/03 A2984 RMK AO2 SLP104 T00440033
 
KBVY - Beverly, Massachusetts, USA
Distance from station: ENE 33mi, 54km
Updated: Wed, 21-Apr-2021 5:53am EDT
Clear
Clear
 Wind from E
Wind: E 3 mph , 6 km/h
Temperature: 41°F , 5°C
Dew Point: 37°F , 3°C
Humidity: 87%
Barometer: 29.83 inHg , 1010.2 hPa
Clouds: Clear
Visibility: 10 miles , 16 km
2021/04/21 09:53 KBVY 210953Z AUTO 10003KT 10SM CLR 05/03 A2983 RMK AO2 SLP096 T00500028
KSFZ - Pawtucket, Rhode Island, USA
Distance from station: S 34mi, 54km
Updated: Wed, 21-Apr-2021 5:56am EDT
Few Clouds
Few Clouds
 Wind from varies
Wind: varies 6 mph , 9 km/h
Temperature: 48°F , 9°C
Wind Chill: 45°F , 7°C
Dew Point: 46°F , 8°C
Humidity: 94%
Barometer: 29.83 inHg , 1010.2 hPa
Clouds: Few Clouds
Visibility: 10 miles , 16 km
Cloud details: Few Clouds 7000 ft
2021/04/21 09:56 KSFZ 210956Z AUTO VRB05KT 10SM FEW070 09/08 A2983 RMK AO2 SLP108 T00890083 $
 
KAFN - Jaffrey, New Hampshire, USA
Distance from station: NW 36mi, 59km
Updated: Wed, 21-Apr-2021 5:52am EDT
Clear
Clear
 Wind from calm
Wind: Calm
Temperature: 36°F , 2°C
Dew Point: 34°F , 1°C
Humidity: 93%
Barometer: 29.81 inHg , 1009.5 hPa
Clouds: Clear
Visibility: 10 miles , 16 km
2021/04/21 09:52 KAFN 210952Z AUTO 00000KT 10SM CLR 02/01 A2981 RMK AO2 SLP102 T00170006
KMHT - Manchester, New Hampshire, USA
Distance from station: N 37mi, 59km
Updated: Wed, 21-Apr-2021 5:53am EDT
Mostly cloudy
Mostly cloudy
 Wind from calm
Wind: Calm
Temperature: 43°F , 6°C
Dew Point: 36°F , 2°C
Humidity: 76%
Barometer: 29.81 inHg , 1009.5 hPa
Clouds: Mostly cloudy
Visibility: 10 miles , 16 km
Cloud details: Few Clouds 12000 ft
Mostly cloudy 25000 ft
2021/04/21 09:53 KMHT 210953Z 00000KT 10SM FEW120 BKN250 06/02 A2981 RMK AO2 SLP109 T00610022
 
KORE - Orange, Massachusetts, USA
Distance from station: WNW 40mi, 65km
Updated: Wed, 21-Apr-2021 5:52am EDT
Clear
Clear
 Wind from calm
Wind: Calm
Temperature: 34°F , 1°C
Dew Point: 34°F , 1°C
Humidity: 100%
Barometer: 29.82 inHg , 1009.8 hPa
Clouds: Clear
Visibility: 10 miles , 16 km
2021/04/21 09:52 KORE 210952Z AUTO 00000KT 10SM CLR 01/01 A2982 RMK AO2 SLP100 T00110006
KTAN - Taunton, Massachusetts, USA
Distance from station: SE 45mi, 72km
Updated: Wed, 21-Apr-2021 5:52am EDT
Clear
Clear
 Wind from SSE
Wind: SSE 5 mph , 7 km/h
Temperature: 48°F , 9°C
Wind Chill: 46°F , 8°C
Dew Point: 45°F , 7°C
Humidity: 87%
Barometer: 29.85 inHg , 1010.8 hPa
Clouds: Clear
Visibility: 10 miles , 16 km
2021/04/21 09:52 KTAN 210952Z AUTO 15004KT 10SM CLR 09/07 A2985 RMK AO2 SLP109 T00940072
 
KPVD - Providence/Green, Rhode Island, USA
Distance from station: S 48mi, 77km
Updated: Wed, 21-Apr-2021 5:51am EDT
Few Clouds
Few Clouds
 Wind from calm
Wind: Calm
Temperature: 48°F , 9°C
Dew Point: 46°F , 8°C
Humidity: 94%
Barometer: 29.85 inHg , 1010.8 hPa
Clouds: Few Clouds
Visibility: 10 miles , 16 km
Cloud details: Few Clouds 700 ft
Few Clouds 1500 ft
2021/04/21 09:51 KPVD 210951Z 00000KT 10SM FEW007 FEW015 09/08 A2985 RMK AO2 SLP106 T00890078
KGHG - Marshfield, Massachusetts, USA
Distance from station: ESE 49mi, 79km
Updated: Wed, 21-Apr-2021 5:55am EDT
Clear
Clear
 Wind from SSW
Wind: SSW 7 mph , 11 km/h
Temperature: 52°F , 11°C
Dew Point: 48°F , 9°C
Humidity: 88%
Barometer: 29.85 inHg , 1010.8 hPa
Clouds: Clear
Visibility: 10 miles , 16 km
2021/04/21 09:55 KGHG 210955Z AUTO 20006KT 10SM CLR 11/09 A2985 RMK AO2 TSNO
 
KEEN - Keene/Dillant, New Hampshire, USA
Distance from station: NW 50mi, 81km
Updated: Wed, 21-Apr-2021 5:56am EDT
Mist, Few clouds
Mist, Few clouds
 Wind from calm
Wind: Calm
Temperature: 32°F , 0°C
Dew Point: 32°F , 0°C
Humidity: 100%
Barometer: 29.82 inHg , 1009.8 hPa
Summary: Mist
Clouds: Few Clouds
Visibility: 3 miles , 5 km
Cloud details: Few Clouds 8500 ft
2021/04/21 09:56 KEEN 210956Z AUTO 00000KT 3SM BR FEW085 00/00 A2982 RMK AO2 SLP105 T00000000 FZRANO $